sensor_id;sensor_type;location;lat;lon;timestamp;P1;durP1;ratioP1;P2;durP2;ratioP2
37047;SDS011;23227;48.780;9.210;2023-06-14T00:02:13;5.43;;;3.60;;
37047;SDS011;23227;48.780;9.210;2023-06-14T00:05:17;8.17;;;4.07;;
37047;SDS011;23227;48.780;9.210;2023-06-14T00:08:20;7.63;;;3.80;;
37047;SDS011;23227;48.780;9.210;2023-06-14T00:11:25;9.60;;;3.80;;
37047;SDS011;23227;48.780;9.210;2023-06-14T00:14:28;7.27;;;4.20;;
37047;SDS011;23227;48.780;9.210;2023-06-14T00:17:31;9.98;;;4.50;;
37047;SDS011;23227;48.780;9.210;2023-06-14T00:20:35;5.47;;;3.70;;
37047;SDS011;23227;48.780;9.210;2023-06-14T00:23:38;7.90;;;3.95;;
37047;SDS011;23227;48.780;9.210;2023-06-14T00:26:42;7.07;;;3.72;;
37047;SDS011;23227;48.780;9.210;2023-06-14T00:29:45;10.00;;;4.50;;
37047;SDS011;23227;48.780;9.210;2023-06-14T00:32:47;8.13;;;3.65;;
37047;SDS011;23227;48.780;9.210;2023-06-14T00:35:51;7.97;;;3.90;;
37047;SDS011;23227;48.780;9.210;2023-06-14T00:38:55;11.20;;;4.47;;
37047;SDS011;23227;48.780;9.210;2023-06-14T00:41:59;8.07;;;4.00;;
37047;SDS011;23227;48.780;9.210;2023-06-14T00:45:02;11.60;;;3.67;;
37047;SDS011;23227;48.780;9.210;2023-06-14T00:48:05;9.10;;;3.85;;
37047;SDS011;23227;48.780;9.210;2023-06-14T00:51:08;8.57;;;4.20;;
37047;SDS011;23227;48.780;9.210;2023-06-14T00:54:11;5.63;;;3.42;;
37047;SDS011;23227;48.780;9.210;2023-06-14T00:57:16;10.25;;;3.65;;
37047;SDS011;23227;48.780;9.210;2023-06-14T01:00:19;6.43;;;3.67;;
37047;SDS011;23227;48.780;9.210;2023-06-14T01:03:21;8.38;;;3.47;;
37047;SDS011;23227;48.780;9.210;2023-06-14T01:06:27;8.77;;;3.95;;
37047;SDS011;23227;48.780;9.210;2023-06-14T01:09:36;7.07;;;4.10;;
37047;SDS011;23227;48.780;9.210;2023-06-14T01:12:47;9.03;;;4.03;;
37047;SDS011;23227;48.780;9.210;2023-06-14T01:15:53;7.07;;;3.53;;
37047;SDS011;23227;48.780;9.210;2023-06-14T01:18:57;5.50;;;3.50;;
37047;SDS011;23227;48.780;9.210;2023-06-14T01:22:00;6.07;;;3.42;;
37047;SDS011;23227;48.780;9.210;2023-06-14T01:25:05;5.90;;;3.50;;
37047;SDS011;23227;48.780;9.210;2023-06-14T01:28:09;6.70;;;3.60;;
37047;SDS011;23227;48.780;9.210;2023-06-14T01:31:16;6.47;;;3.20;;
37047;SDS011;23227;48.780;9.210;2023-06-14T01:34:19;6.43;;;3.40;;
37047;SDS011;23227;48.780;9.210;2023-06-14T01:37:22;6.97;;;3.70;;
37047;SDS011;23227;48.780;9.210;2023-06-14T01:40:26;6.38;;;3.90;;
37047;SDS011;23227;48.780;9.210;2023-06-14T01:43:29;6.90;;;3.57;;
37047;SDS011;23227;48.780;9.210;2023-06-14T01:49:35;5.87;;;3.83;;
37047;SDS011;23227;48.780;9.210;2023-06-14T01:52:37;6.22;;;4.03;;
37047;SDS011;23227;48.780;9.210;2023-06-14T01:55:42;4.95;;;3.55;;
37047;SDS011;23227;48.780;9.210;2023-06-14T01:58:45;5.90;;;3.60;;
37047;SDS011;23227;48.780;9.210;2023-06-14T02:01:49;7.43;;;3.43;;
37047;SDS011;23227;48.780;9.210;2023-06-14T02:04:52;6.40;;;3.80;;
37047;SDS011;23227;48.780;9.210;2023-06-14T02:07:58;6.23;;;3.10;;
37047;SDS011;23227;48.780;9.210;2023-06-14T02:11:02;5.22;;;3.55;;
37047;SDS011;23227;48.780;9.210;2023-06-14T02:14:05;10.00;;;3.97;;
37047;SDS011;23227;48.780;9.210;2023-06-14T02:17:08;8.38;;;3.85;;
37047;SDS011;23227;48.780;9.210;2023-06-14T02:20:11;6.15;;;3.60;;
37047;SDS011;23227;48.780;9.210;2023-06-14T02:23:14;6.87;;;3.73;;
37047;SDS011;23227;48.780;9.210;2023-06-14T02:26:18;7.30;;;3.53;;
37047;SDS011;23227;48.780;9.210;2023-06-14T02:29:21;5.63;;;3.33;;
37047;SDS011;23227;48.780;9.210;2023-06-14T02:32:24;6.13;;;3.70;;
37047;SDS011;23227;48.780;9.210;2023-06-14T02:35:28;5.03;;;3.47;;
37047;SDS011;23227;48.780;9.210;2023-06-14T02:38:32;6.27;;;3.63;;
37047;SDS011;23227;48.780;9.210;2023-06-14T02:41:36;7.03;;;3.95;;
37047;SDS011;23227;48.780;9.210;2023-06-14T02:44:39;7.13;;;3.73;;
37047;SDS011;23227;48.780;9.210;2023-06-14T02:47:41;7.03;;;3.88;;
37047;SDS011;23227;48.780;9.210;2023-06-14T02:50:44;7.45;;;4.03;;
37047;SDS011;23227;48.780;9.210;2023-06-14T02:53:47;9.05;;;3.55;;
37047;SDS011;23227;48.780;9.210;2023-06-14T02:56:51;8.35;;;3.92;;
37047;SDS011;23227;48.780;9.210;2023-06-14T02:59:54;7.87;;;4.17;;
37047;SDS011;23227;48.780;9.210;2023-06-14T03:02:57;6.47;;;3.80;;
37047;SDS011;23227;48.780;9.210;2023-06-14T03:06:03;8.70;;;4.37;;
37047;SDS011;23227;48.780;9.210;2023-06-14T03:09:06;6.68;;;3.72;;
37047;SDS011;23227;48.780;9.210;2023-06-14T03:12:12;6.10;;;3.63;;
37047;SDS011;23227;48.780;9.210;2023-06-14T03:15:15;7.20;;;3.80;;
37047;SDS011;23227;48.780;9.210;2023-06-14T03:18:18;4.70;;;3.10;;
37047;SDS011;23227;48.780;9.210;2023-06-14T03:21:27;7.93;;;3.70;;
37047;SDS011;23227;48.780;9.210;2023-06-14T03:24:30;5.93;;;3.72;;
37047;SDS011;23227;48.780;9.210;2023-06-14T03:27:39;9.63;;;3.53;;
37047;SDS011;23227;48.780;9.210;2023-06-14T03:30:42;9.43;;;4.03;;
37047;SDS011;23227;48.780;9.210;2023-06-14T03:33:45;4.47;;;3.20;;
37047;SDS011;23227;48.780;9.210;2023-06-14T03:36:48;7.88;;;3.40;;
37047;SDS011;23227;48.780;9.210;2023-06-14T03:39:50;6.18;;;3.30;;
37047;SDS011;23227;48.780;9.210;2023-06-14T03:42:55;6.03;;;3.50;;
37047;SDS011;23227;48.780;9.210;2023-06-14T03:45:57;6.13;;;3.97;;
37047;SDS011;23227;48.780;9.210;2023-06-14T03:49:01;8.05;;;3.55;;
37047;SDS011;23227;48.780;9.210;2023-06-14T03:52:04;6.30;;;3.80;;
37047;SDS011;23227;48.780;9.210;2023-06-14T03:55:07;5.72;;;3.80;;
37047;SDS011;23227;48.780;9.210;2023-06-14T03:58:15;5.43;;;3.30;;
37047;SDS011;23227;48.780;9.210;2023-06-14T04:01:18;7.60;;;3.70;;
37047;SDS011;23227;48.780;9.210;2023-06-14T04:04:21;6.95;;;3.90;;
37047;SDS011;23227;48.780;9.210;2023-06-14T04:07:30;4.37;;;3.23;;
37047;SDS011;23227;48.780;9.210;2023-06-14T04:10:33;8.88;;;4.05;;
37047;SDS011;23227;48.780;9.210;2023-06-14T04:13:37;7.05;;;3.75;;
37047;SDS011;23227;48.780;9.210;2023-06-14T04:16:40;5.53;;;3.67;;
37047;SDS011;23227;48.780;9.210;2023-06-14T04:19:43;6.03;;;3.58;;
37047;SDS011;23227;48.780;9.210;2023-06-14T04:22:46;7.05;;;3.70;;
37047;SDS011;23227;48.780;9.210;2023-06-14T04:25:50;8.83;;;3.60;;
37047;SDS011;23227;48.780;9.210;2023-06-14T04:28:54;6.78;;;3.33;;
37047;SDS011;23227;48.780;9.210;2023-06-14T04:31:58;10.03;;;3.47;;
37047;SDS011;23227;48.780;9.210;2023-06-14T04:35:01;7.57;;;3.93;;
37047;SDS011;23227;48.780;9.210;2023-06-14T04:38:05;6.45;;;3.78;;
37047;SDS011;23227;48.780;9.210;2023-06-14T04:41:10;9.40;;;4.23;;
37047;SDS011;23227;48.780;9.210;2023-06-14T04:44:14;6.32;;;4.47;;
37047;SDS011;23227;48.780;9.210;2023-06-14T04:47:18;6.13;;;3.80;;
37047;SDS011;23227;48.780;9.210;2023-06-14T04:50:22;8.20;;;3.93;;
37047;SDS011;23227;48.780;9.210;2023-06-14T04:53:25;9.63;;;3.42;;
37047;SDS011;23227;48.780;9.210;2023-06-14T04:56:30;6.93;;;3.77;;
37047;SDS011;23227;48.780;9.210;2023-06-14T04:59:34;9.50;;;3.85;;
37047;SDS011;23227;48.780;9.210;2023-06-14T05:02:37;6.00;;;3.77;;
37047;SDS011;23227;48.780;9.210;2023-06-14T05:05:41;9.27;;;4.10;;
37047;SDS011;23227;48.780;9.210;2023-06-14T05:08:44;7.30;;;4.22;;
37047;SDS011;23227;48.780;9.210;2023-06-14T05:11:47;6.15;;;3.65;;
37047;SDS011;23227;48.780;9.210;2023-06-14T05:14:53;11.47;;;4.43;;
37047;SDS011;23227;48.780;9.210;2023-06-14T05:17:55;9.60;;;4.10;;
37047;SDS011;23227;48.780;9.210;2023-06-14T05:20:58;8.90;;;4.18;;
37047;SDS011;23227;48.780;9.210;2023-06-14T05:24:01;9.52;;;4.25;;
37047;SDS011;23227;48.780;9.210;2023-06-14T05:27:03;10.52;;;4.53;;
37047;SDS011;23227;48.780;9.210;2023-06-14T05:30:09;9.90;;;3.93;;
37047;SDS011;23227;48.780;9.210;2023-06-14T05:33:12;6.77;;;4.23;;
37047;SDS011;23227;48.780;9.210;2023-06-14T05:36:15;5.88;;;3.83;;
37047;SDS011;23227;48.780;9.210;2023-06-14T05:39:18;7.68;;;3.58;;
37047;SDS011;23227;48.780;9.210;2023-06-14T05:42:20;6.78;;;4.13;;
37047;SDS011;23227;48.780;9.210;2023-06-14T05:45:24;7.65;;;4.22;;
37047;SDS011;23227;48.780;9.210;2023-06-14T05:48:27;9.47;;;4.30;;
37047;SDS011;23227;48.780;9.210;2023-06-14T05:51:32;6.77;;;4.80;;
37047;SDS011;23227;48.780;9.210;2023-06-14T05:54:35;9.80;;;4.95;;
37047;SDS011;23227;48.780;9.210;2023-06-14T05:57:38;6.72;;;4.28;;
37047;SDS011;23227;48.780;9.210;2023-06-14T06:00:42;6.53;;;3.78;;
37047;SDS011;23227;48.780;9.210;2023-06-14T06:03:44;9.67;;;4.00;;
37047;SDS011;23227;48.780;9.210;2023-06-14T06:06:48;6.55;;;4.20;;
37047;SDS011;23227;48.780;9.210;2023-06-14T06:09:50;8.48;;;4.13;;
37047;SDS011;23227;48.780;9.210;2023-06-14T06:12:53;6.80;;;3.92;;
37047;SDS011;23227;48.780;9.210;2023-06-14T06:15:57;6.38;;;3.58;;
37047;SDS011;23227;48.780;9.210;2023-06-14T06:18:59;12.20;;;3.70;;
37047;SDS011;23227;48.780;9.210;2023-06-14T06:22:02;6.65;;;4.13;;
37047;SDS011;23227;48.780;9.210;2023-06-14T06:25:07;10.93;;;3.63;;
37047;SDS011;23227;48.780;9.210;2023-06-14T06:28:10;13.10;;;3.60;;
37047;SDS011;23227;48.780;9.210;2023-06-14T06:31:14;7.28;;;4.53;;
37047;SDS011;23227;48.780;9.210;2023-06-14T06:34:17;6.33;;;3.73;;
37047;SDS011;23227;48.780;9.210;2023-06-14T06:37:20;7.57;;;4.07;;
37047;SDS011;23227;48.780;9.210;2023-06-14T06:40:23;11.85;;;4.05;;
37047;SDS011;23227;48.780;9.210;2023-06-14T06:43:25;6.80;;;3.55;;
37047;SDS011;23227;48.780;9.210;2023-06-14T06:46:29;10.80;;;3.97;;
37047;SDS011;23227;48.780;9.210;2023-06-14T06:49:32;5.23;;;3.00;;
37047;SDS011;23227;48.780;9.210;2023-06-14T06:52:35;4.90;;;2.88;;
37047;SDS011;23227;48.780;9.210;2023-06-14T06:55:38;4.82;;;3.35;;
37047;SDS011;23227;48.780;9.210;2023-06-14T06:58:41;10.27;;;3.92;;
37047;SDS011;23227;48.780;9.210;2023-06-14T07:01:44;6.60;;;3.50;;
37047;SDS011;23227;48.780;9.210;2023-06-14T07:04:47;5.27;;;3.20;;
37047;SDS011;23227;48.780;9.210;2023-06-14T07:10:54;6.97;;;3.38;;
37047;SDS011;23227;48.780;9.210;2023-06-14T07:13:57;8.10;;;3.15;;
37047;SDS011;23227;48.780;9.210;2023-06-14T07:17:01;9.20;;;3.10;;
37047;SDS011;23227;48.780;9.210;2023-06-14T07:20:04;8.73;;;2.90;;
37047;SDS011;23227;48.780;9.210;2023-06-14T07:23:13;5.90;;;2.80;;
37047;SDS011;23227;48.780;9.210;2023-06-14T07:26:15;5.45;;;3.03;;
37047;SDS011;23227;48.780;9.210;2023-06-14T07:29:18;7.53;;;3.15;;
37047;SDS011;23227;48.780;9.210;2023-06-14T07:32:23;5.57;;;3.50;;
37047;SDS011;23227;48.780;9.210;2023-06-14T07:35:25;9.53;;;3.40;;
37047;SDS011;23227;48.780;9.210;2023-06-14T07:38:28;6.45;;;3.33;;
37047;SDS011;23227;48.780;9.210;2023-06-14T07:41:30;6.32;;;2.80;;
37047;SDS011;23227;48.780;9.210;2023-06-14T07:44:33;8.80;;;3.42;;
37047;SDS011;23227;48.780;9.210;2023-06-14T07:47:38;6.83;;;3.10;;
37047;SDS011;23227;48.780;9.210;2023-06-14T07:50:41;4.17;;;3.10;;
37047;SDS011;23227;48.780;9.210;2023-06-14T07:53:44;5.90;;;2.90;;
37047;SDS011;23227;48.780;9.210;2023-06-14T07:56:47;9.13;;;4.30;;
37047;SDS011;23227;48.780;9.210;2023-06-14T07:59:50;8.90;;;3.30;;
37047;SDS011;23227;48.780;9.210;2023-06-14T08:02:55;6.07;;;3.20;;
37047;SDS011;23227;48.780;9.210;2023-06-14T08:06:01;8.80;;;3.60;;
37047;SDS011;23227;48.780;9.210;2023-06-14T08:09:05;7.53;;;3.60;;
37047;SDS011;23227;48.780;9.210;2023-06-14T08:12:08;8.18;;;3.78;;
37047;SDS011;23227;48.780;9.210;2023-06-14T08:15:12;4.07;;;3.17;;
37047;SDS011;23227;48.780;9.210;2023-06-14T08:18:16;5.50;;;3.50;;
37047;SDS011;23227;48.780;9.210;2023-06-14T08:21:19;9.77;;;3.57;;
37047;SDS011;23227;48.780;9.210;2023-06-14T08:24:22;7.53;;;3.55;;
37047;SDS011;23227;48.780;9.210;2023-06-14T08:27:25;9.23;;;3.70;;
37047;SDS011;23227;48.780;9.210;2023-06-14T08:30:31;10.47;;;4.10;;
37047;SDS011;23227;48.780;9.210;2023-06-14T08:33:35;6.10;;;3.40;;
37047;SDS011;23227;48.780;9.210;2023-06-14T08:36:37;13.30;;;3.87;;
37047;SDS011;23227;48.780;9.210;2023-06-14T08:39:40;5.57;;;3.40;;
37047;SDS011;23227;48.780;9.210;2023-06-14T08:42:45;7.73;;;3.20;;
37047;SDS011;23227;48.780;9.210;2023-06-14T08:45:51;6.50;;;2.77;;
37047;SDS011;23227;48.780;9.210;2023-06-14T08:48:58;5.27;;;2.80;;
37047;SDS011;23227;48.780;9.210;2023-06-14T08:52:01;5.53;;;3.00;;
37047;SDS011;23227;48.780;9.210;2023-06-14T08:55:05;6.07;;;2.93;;
37047;SDS011;23227;48.780;9.210;2023-06-14T08:58:10;9.00;;;3.00;;
37047;SDS011;23227;48.780;9.210;2023-06-14T09:01:15;4.87;;;3.03;;
37047;SDS011;23227;48.780;9.210;2023-06-14T09:04:20;6.17;;;3.27;;
37047;SDS011;23227;48.780;9.210;2023-06-14T09:07:23;6.07;;;3.00;;
37047;SDS011;23227;48.780;9.210;2023-06-14T09:10:27;7.90;;;3.23;;
37047;SDS011;23227;48.780;9.210;2023-06-14T09:13:30;7.20;;;3.13;;
37047;SDS011;23227;48.780;9.210;2023-06-14T09:16:33;10.02;;;3.60;;
37047;SDS011;23227;48.780;9.210;2023-06-14T09:19:37;6.30;;;3.10;;
37047;SDS011;23227;48.780;9.210;2023-06-14T09:22:40;3.57;;;2.40;;
37047;SDS011;23227;48.780;9.210;2023-06-14T09:25:43;6.72;;;3.05;;
37047;SDS011;23227;48.780;9.210;2023-06-14T09:28:48;5.00;;;3.07;;
37047;SDS011;23227;48.780;9.210;2023-06-14T09:31:52;5.43;;;3.20;;
37047;SDS011;23227;48.780;9.210;2023-06-14T09:34:56;4.68;;;3.10;;
37047;SDS011;23227;48.780;9.210;2023-06-14T09:37:59;6.33;;;2.83;;
37047;SDS011;23227;48.780;9.210;2023-06-14T09:41:02;14.65;;;3.28;;
37047;SDS011;23227;48.780;9.210;2023-06-14T09:44:06;3.90;;;2.97;;
37047;SDS011;23227;48.780;9.210;2023-06-14T09:47:16;5.00;;;2.83;;
37047;SDS011;23227;48.780;9.210;2023-06-14T09:50:20;5.17;;;2.53;;
37047;SDS011;23227;48.780;9.210;2023-06-14T09:53:23;10.27;;;3.80;;
37047;SDS011;23227;48.780;9.210;2023-06-14T09:59:30;7.90;;;2.70;;
37047;SDS011;23227;48.780;9.210;2023-06-14T10:02:34;4.32;;;3.00;;
37047;SDS011;23227;48.780;9.210;2023-06-14T10:05:43;5.57;;;2.60;;
37047;SDS011;23227;48.780;9.210;2023-06-14T10:08:46;8.10;;;2.53;;
37047;SDS011;23227;48.780;9.210;2023-06-14T10:11:50;9.45;;;2.58;;
37047;SDS011;23227;48.780;9.210;2023-06-14T10:17:59;4.68;;;2.35;;
37047;SDS011;23227;48.780;9.210;2023-06-14T10:21:08;7.43;;;3.00;;
37047;SDS011;23227;48.780;9.210;2023-06-14T10:24:16;7.47;;;2.78;;
37047;SDS011;23227;48.780;9.210;2023-06-14T10:27:20;3.97;;;2.58;;
37047;SDS011;23227;48.780;9.210;2023-06-14T10:30:25;7.10;;;2.80;;
37047;SDS011;23227;48.780;9.210;2023-06-14T10:33:28;4.57;;;2.60;;
37047;SDS011;23227;48.780;9.210;2023-06-14T10:39:38;6.72;;;2.50;;
37047;SDS011;23227;48.780;9.210;2023-06-14T10:42:41;4.60;;;2.22;;
37047;SDS011;23227;48.780;9.210;2023-06-14T10:49:17;5.85;;;3.25;;
37047;SDS011;23227;48.780;9.210;2023-06-14T10:52:23;4.15;;;3.08;;
37047;SDS011;23227;48.780;9.210;2023-06-14T10:55:29;5.78;;;3.15;;
37047;SDS011;23227;48.780;9.210;2023-06-14T10:58:37;8.32;;;3.30;;
37047;SDS011;23227;48.780;9.210;2023-06-14T11:01:41;9.30;;;3.13;;
37047;SDS011;23227;48.780;9.210;2023-06-14T11:04:52;9.45;;;2.88;;
37047;SDS011;23227;48.780;9.210;2023-06-14T11:08:13;6.67;;;2.57;;
37047;SDS011;23227;48.780;9.210;2023-06-14T11:11:21;5.55;;;2.92;;
37047;SDS011;23227;48.780;9.210;2023-06-14T11:14:24;7.40;;;2.03;;
37047;SDS011;23227;48.780;9.210;2023-06-14T11:17:27;5.63;;;2.28;;
37047;SDS011;23227;48.780;9.210;2023-06-14T11:20:32;5.35;;;3.25;;
37047;SDS011;23227;48.780;9.210;2023-06-14T11:23:37;7.80;;;2.58;;
37047;SDS011;23227;48.780;9.210;2023-06-14T11:26:40;5.75;;;2.63;;
37047;SDS011;23227;48.780;9.210;2023-06-14T11:29:47;4.13;;;2.60;;
37047;SDS011;23227;48.780;9.210;2023-06-14T11:32:50;5.80;;;2.50;;
37047;SDS011;23227;48.780;9.210;2023-06-14T11:36:01;4.43;;;2.72;;
37047;SDS011;23227;48.780;9.210;2023-06-14T11:39:05;8.10;;;2.83;;
37047;SDS011;23227;48.780;9.210;2023-06-14T11:42:13;4.70;;;2.53;;
37047;SDS011;23227;48.780;9.210;2023-06-14T11:45:16;3.95;;;2.58;;
37047;SDS011;23227;48.780;9.210;2023-06-14T11:48:19;4.63;;;2.72;;
37047;SDS011;23227;48.780;9.210;2023-06-14T11:54:25;4.10;;;2.65;;
37047;SDS011;23227;48.780;9.210;2023-06-14T11:57:28;6.85;;;2.42;;
37047;SDS011;23227;48.780;9.210;2023-06-14T12:00:31;7.20;;;2.28;;
37047;SDS011;23227;48.780;9.210;2023-06-14T12:03:34;4.90;;;2.55;;
37047;SDS011;23227;48.780;9.210;2023-06-14T12:06:37;7.95;;;2.80;;
37047;SDS011;23227;48.780;9.210;2023-06-14T12:09:46;6.22;;;2.63;;
37047;SDS011;23227;48.780;9.210;2023-06-14T12:13:09;3.97;;;2.38;;
37047;SDS011;23227;48.780;9.210;2023-06-14T12:16:11;7.60;;;2.80;;
37047;SDS011;23227;48.780;9.210;2023-06-14T12:19:14;4.70;;;2.65;;
37047;SDS011;23227;48.780;9.210;2023-06-14T12:22:19;8.68;;;3.28;;
37047;SDS011;23227;48.780;9.210;2023-06-14T12:25:25;3.05;;;2.53;;
37047;SDS011;23227;48.780;9.210;2023-06-14T12:28:30;4.13;;;2.88;;
37047;SDS011;23227;48.780;9.210;2023-06-14T12:31:34;5.28;;;2.92;;
37047;SDS011;23227;48.780;9.210;2023-06-14T12:34:36;6.28;;;2.55;;
37047;SDS011;23227;48.780;9.210;2023-06-14T12:37:39;3.42;;;2.58;;
37047;SDS011;23227;48.780;9.210;2023-06-14T12:40:43;9.35;;;2.72;;
37047;SDS011;23227;48.780;9.210;2023-06-14T12:43:46;9.60;;;2.20;;
37047;SDS011;23227;48.780;9.210;2023-06-14T12:46:49;5.20;;;2.38;;
37047;SDS011;23227;48.780;9.210;2023-06-14T12:49:54;3.35;;;2.60;;
37047;SDS011;23227;48.780;9.210;2023-06-14T12:52:57;5.30;;;2.42;;
37047;SDS011;23227;48.780;9.210;2023-06-14T12:59:04;8.88;;;2.75;;
37047;SDS011;23227;48.780;9.210;2023-06-14T13:02:14;2.70;;;2.42;;
37047;SDS011;23227;48.780;9.210;2023-06-14T13:05:18;7.25;;;2.40;;
37047;SDS011;23227;48.780;9.210;2023-06-14T13:08:21;4.15;;;2.50;;
37047;SDS011;23227;48.780;9.210;2023-06-14T13:11:27;4.40;;;2.35;;
37047;SDS011;23227;48.780;9.210;2023-06-14T13:14:29;2.80;;;2.33;;
37047;SDS011;23227;48.780;9.210;2023-06-14T13:17:33;7.45;;;2.55;;
37047;SDS011;23227;48.780;9.210;2023-06-14T13:20:39;7.00;;;2.55;;
37047;SDS011;23227;48.780;9.210;2023-06-14T13:23:42;5.22;;;1.92;;
37047;SDS011;23227;48.780;9.210;2023-06-14T13:26:46;4.10;;;2.67;;
37047;SDS011;23227;48.780;9.210;2023-06-14T13:29:49;6.45;;;3.10;;
37047;SDS011;23227;48.780;9.210;2023-06-14T13:32:51;4.35;;;2.63;;
37047;SDS011;23227;48.780;9.210;2023-06-14T13:35:54;9.45;;;2.92;;
37047;SDS011;23227;48.780;9.210;2023-06-14T13:38:57;5.25;;;2.70;;
37047;SDS011;23227;48.780;9.210;2023-06-14T13:42:01;3.15;;;2.30;;
37047;SDS011;23227;48.780;9.210;2023-06-14T13:45:04;2.88;;;2.65;;
37047;SDS011;23227;48.780;9.210;2023-06-14T13:48:08;4.45;;;2.40;;
37047;SDS011;23227;48.780;9.210;2023-06-14T13:51:10;3.25;;;2.35;;
37047;SDS011;23227;48.780;9.210;2023-06-14T13:54:13;4.22;;;2.20;;
37047;SDS011;23227;48.780;9.210;2023-06-14T13:57:17;4.88;;;2.55;;
37047;SDS011;23227;48.780;9.210;2023-06-14T14:00:20;3.85;;;2.53;;
37047;SDS011;23227;48.780;9.210;2023-06-14T14:03:24;5.63;;;2.38;;
37047;SDS011;23227;48.780;9.210;2023-06-14T14:06:27;4.00;;;2.25;;
37047;SDS011;23227;48.780;9.210;2023-06-14T14:09:30;4.32;;;2.42;;
37047;SDS011;23227;48.780;9.210;2023-06-14T14:12:34;4.13;;;2.25;;
37047;SDS011;23227;48.780;9.210;2023-06-14T14:15:37;4.00;;;1.77;;
37047;SDS011;23227;48.780;9.210;2023-06-14T14:18:39;6.22;;;2.33;;
37047;SDS011;23227;48.780;9.210;2023-06-14T14:21:42;2.58;;;2.15;;
37047;SDS011;23227;48.780;9.210;2023-06-14T14:24:45;5.90;;;2.35;;
37047;SDS011;23227;48.780;9.210;2023-06-14T14:27:49;8.25;;;3.13;;
37047;SDS011;23227;48.780;9.210;2023-06-14T14:30:52;3.13;;;2.25;;
37047;SDS011;23227;48.780;9.210;2023-06-14T14:33:55;5.22;;;2.17;;
37047;SDS011;23227;48.780;9.210;2023-06-14T14:36:58;7.55;;;2.70;;
37047;SDS011;23227;48.780;9.210;2023-06-14T14:40:00;3.20;;;2.50;;
37047;SDS011;23227;48.780;9.210;2023-06-14T14:43:06;4.90;;;2.20;;
37047;SDS011;23227;48.780;9.210;2023-06-14T14:46:08;6.18;;;2.28;;
37047;SDS011;23227;48.780;9.210;2023-06-14T14:49:11;3.22;;;2.10;;
37047;SDS011;23227;48.780;9.210;2023-06-14T14:52:14;7.53;;;2.13;;
37047;SDS011;23227;48.780;9.210;2023-06-14T14:55:25;4.40;;;2.08;;
37047;SDS011;23227;48.780;9.210;2023-06-14T14:58:29;5.65;;;1.92;;
37047;SDS011;23227;48.780;9.210;2023-06-14T15:01:31;2.92;;;1.90;;
37047;SDS011;23227;48.780;9.210;2023-06-14T15:04:34;4.32;;;1.80;;
37047;SDS011;23227;48.780;9.210;2023-06-14T15:07:37;7.07;;;2.20;;
37047;SDS011;23227;48.780;9.210;2023-06-14T15:10:40;5.15;;;2.03;;
37047;SDS011;23227;48.780;9.210;2023-06-14T15:13:46;3.72;;;1.90;;
37047;SDS011;23227;48.780;9.210;2023-06-14T15:16:50;2.47;;;2.03;;
37047;SDS011;23227;48.780;9.210;2023-06-14T15:19:52;6.43;;;2.85;;
37047;SDS011;23227;48.780;9.210;2023-06-14T15:22:55;2.78;;;1.90;;
37047;SDS011;23227;48.780;9.210;2023-06-14T15:26:00;4.18;;;2.20;;
37047;SDS011;23227;48.780;9.210;2023-06-14T15:29:04;4.70;;;1.92;;
37047;SDS011;23227;48.780;9.210;2023-06-14T15:32:07;3.28;;;1.85;;
37047;SDS011;23227;48.780;9.210;2023-06-14T15:35:12;3.63;;;1.92;;
37047;SDS011;23227;48.780;9.210;2023-06-14T15:38:14;6.72;;;2.33;;
37047;SDS011;23227;48.780;9.210;2023-06-14T15:41:17;3.00;;;1.90;;
37047;SDS011;23227;48.780;9.210;2023-06-14T15:44:21;3.70;;;2.30;;
37047;SDS011;23227;48.780;9.210;2023-06-14T15:47:24;5.05;;;2.30;;
37047;SDS011;23227;48.780;9.210;2023-06-14T15:50:27;3.42;;;1.83;;
37047;SDS011;23227;48.780;9.210;2023-06-14T15:53:29;4.57;;;2.00;;
37047;SDS011;23227;48.780;9.210;2023-06-14T15:56:32;5.40;;;1.88;;
37047;SDS011;23227;48.780;9.210;2023-06-14T15:59:36;6.10;;;2.28;;
37047;SDS011;23227;48.780;9.210;2023-06-14T16:02:39;4.38;;;2.70;;
37047;SDS011;23227;48.780;9.210;2023-06-14T16:05:42;4.88;;;2.35;;
37047;SDS011;23227;48.780;9.210;2023-06-14T16:08:45;6.38;;;2.30;;
37047;SDS011;23227;48.780;9.210;2023-06-14T16:11:47;4.50;;;1.90;;
37047;SDS011;23227;48.780;9.210;2023-06-14T16:14:51;4.30;;;1.88;;
37047;SDS011;23227;48.780;9.210;2023-06-14T16:17:55;3.33;;;2.35;;
37047;SDS011;23227;48.780;9.210;2023-06-14T16:20:58;2.67;;;2.10;;
37047;SDS011;23227;48.780;9.210;2023-06-14T16:24:01;2.83;;;2.05;;
37047;SDS011;23227;48.780;9.210;2023-06-14T16:27:04;5.60;;;2.25;;
37047;SDS011;23227;48.780;9.210;2023-06-14T16:30:11;4.57;;;2.25;;
37047;SDS011;23227;48.780;9.210;2023-06-14T16:33:15;4.35;;;1.80;;
37047;SDS011;23227;48.780;9.210;2023-06-14T16:36:17;3.90;;;2.00;;
37047;SDS011;23227;48.780;9.210;2023-06-14T16:39:20;8.50;;;2.25;;
37047;SDS011;23227;48.780;9.210;2023-06-14T16:42:23;4.40;;;2.03;;
37047;SDS011;23227;48.780;9.210;2023-06-14T16:45:27;4.38;;;2.10;;
37047;SDS011;23227;48.780;9.210;2023-06-14T16:48:30;2.60;;;1.67;;
37047;SDS011;23227;48.780;9.210;2023-06-14T16:51:33;3.20;;;2.25;;
37047;SDS011;23227;48.780;9.210;2023-06-14T16:54:36;2.95;;;1.85;;
37047;SDS011;23227;48.780;9.210;2023-06-14T16:57:38;4.93;;;2.00;;
37047;SDS011;23227;48.780;9.210;2023-06-14T17:00:42;7.13;;;2.20;;
37047;SDS011;23227;48.780;9.210;2023-06-14T17:03:45;4.28;;;2.30;;
37047;SDS011;23227;48.780;9.210;2023-06-14T17:06:48;6.63;;;3.38;;
37047;SDS011;23227;48.780;9.210;2023-06-14T17:09:51;4.10;;;2.47;;
37047;SDS011;23227;48.780;9.210;2023-06-14T17:12:54;4.57;;;2.63;;
37047;SDS011;23227;48.780;9.210;2023-06-14T17:15:58;7.72;;;2.70;;
37047;SDS011;23227;48.780;9.210;2023-06-14T17:19:01;4.30;;;2.65;;
37047;SDS011;23227;48.780;9.210;2023-06-14T17:22:06;5.38;;;2.72;;
37047;SDS011;23227;48.780;9.210;2023-06-14T17:25:09;7.53;;;2.50;;
37047;SDS011;23227;48.780;9.210;2023-06-14T17:28:11;5.30;;;2.85;;
37047;SDS011;23227;48.780;9.210;2023-06-14T17:31:15;8.23;;;3.20;;
37047;SDS011;23227;48.780;9.210;2023-06-14T17:34:18;4.40;;;2.53;;
37047;SDS011;23227;48.780;9.210;2023-06-14T17:37:21;6.65;;;2.30;;
37047;SDS011;23227;48.780;9.210;2023-06-14T17:40:24;2.92;;;2.22;;
37047;SDS011;23227;48.780;9.210;2023-06-14T17:43:41;4.47;;;2.38;;
37047;SDS011;23227;48.780;9.210;2023-06-14T17:46:46;6.22;;;2.60;;
37047;SDS011;23227;48.780;9.210;2023-06-14T17:49:48;11.52;;;3.30;;
37047;SDS011;23227;48.780;9.210;2023-06-14T17:52:54;3.85;;;2.55;;
37047;SDS011;23227;48.780;9.210;2023-06-14T17:55:57;3.25;;;2.47;;
37047;SDS011;23227;48.780;9.210;2023-06-14T17:58:59;4.95;;;2.63;;
37047;SDS011;23227;48.780;9.210;2023-06-14T18:02:04;3.47;;;2.33;;
37047;SDS011;23227;48.780;9.210;2023-06-14T18:05:07;5.40;;;2.40;;
37047;SDS011;23227;48.780;9.210;2023-06-14T18:08:10;10.80;;;3.28;;
37047;SDS011;23227;48.780;9.210;2023-06-14T18:11:13;6.15;;;2.83;;
37047;SDS011;23227;48.780;9.210;2023-06-14T18:14:17;6.13;;;2.55;;
37047;SDS011;23227;48.780;9.210;2023-06-14T18:20:23;8.50;;;2.40;;
37047;SDS011;23227;48.780;9.210;2023-06-14T18:23:26;7.00;;;3.15;;
37047;SDS011;23227;48.780;9.210;2023-06-14T18:26:29;3.33;;;2.78;;
37047;SDS011;23227;48.780;9.210;2023-06-14T18:35:39;7.72;;;2.58;;
37047;SDS011;23227;48.780;9.210;2023-06-14T18:38:41;5.35;;;2.83;;
37047;SDS011;23227;48.780;9.210;2023-06-14T18:41:44;5.18;;;3.20;;
37047;SDS011;23227;48.780;9.210;2023-06-14T18:44:47;4.35;;;2.67;;
37047;SDS011;23227;48.780;9.210;2023-06-14T18:47:50;6.93;;;3.13;;
37047;SDS011;23227;48.780;9.210;2023-06-14T18:50:53;3.30;;;2.15;;
37047;SDS011;23227;48.780;9.210;2023-06-14T18:53:56;10.20;;;3.28;;
37047;SDS011;23227;48.780;9.210;2023-06-14T18:57:02;4.00;;;2.30;;
37047;SDS011;23227;48.780;9.210;2023-06-14T19:03:10;5.37;;;2.60;;
37047;SDS011;23227;48.780;9.210;2023-06-14T19:06:12;4.33;;;2.60;;